Terminal Aerodrome Forecast
Issued by NWS Wichita, KS

Home | Current Version | Previous Version | Graphics & Text | Print | Product List | Glossary On
Versions: 1 2 3 4 5 6 7 8 9 10 11 12 13 14 15 16 17 18
000
FTUS43 KICT 211000 AAB
TAFICT
TAF AMD
KICT 211022Z 2110/2206 00000KT P6SM FEW035
     FM211100 09005KT 5SM BR SCT035
      TEMPO 2111/2114 3SM BR
     FM211500 14009KT P6SM BKN035=

USA.gov is the U.S. government's official web portal to all federal, state and local government web resources and services.